sensor_id;sensor_type;location;lat;lon;timestamp;P1;durP1;ratioP1;P2;durP2;ratioP2
35366;SDS011;21465;52.278;20.962;2023-06-22T00:02:13;10.90;;;10.20;;
35366;SDS011;21465;52.278;20.962;2023-06-22T00:04:40;11.40;;;10.70;;
35366;SDS011;21465;52.278;20.962;2023-06-22T00:07:06;11.75;;;11.05;;
35366;SDS011;21465;52.278;20.962;2023-06-22T00:09:32;12.40;;;11.68;;
35366;SDS011;21465;52.278;20.962;2023-06-22T00:11:58;12.32;;;11.35;;
35366;SDS011;21465;52.278;20.962;2023-06-22T00:14:24;11.38;;;10.57;;
35366;SDS011;21465;52.278;20.962;2023-06-22T00:16:49;11.32;;;10.63;;
35366;SDS011;21465;52.278;20.962;2023-06-22T00:19:20;12.05;;;11.25;;
35366;SDS011;21465;52.278;20.962;2023-06-22T00:21:47;12.65;;;11.85;;
35366;SDS011;21465;52.278;20.962;2023-06-22T00:24:13;12.77;;;11.98;;
35366;SDS011;21465;52.278;20.962;2023-06-22T00:26:39;11.88;;;11.18;;
35366;SDS011;21465;52.278;20.962;2023-06-22T00:29:04;11.90;;;11.20;;
35366;SDS011;21465;52.278;20.962;2023-06-22T00:31:30;11.80;;;10.75;;
35366;SDS011;21465;52.278;20.962;2023-06-22T00:33:56;12.75;;;11.95;;
35366;SDS011;21465;52.278;20.962;2023-06-22T00:36:21;12.30;;;11.45;;
35366;SDS011;21465;52.278;20.962;2023-06-22T00:38:48;10.73;;;10.13;;
35366;SDS011;21465;52.278;20.962;2023-06-22T00:41:16;11.23;;;10.52;;
35366;SDS011;21465;52.278;20.962;2023-06-22T00:43:42;12.15;;;11.40;;
35366;SDS011;21465;52.278;20.962;2023-06-22T00:46:08;13.10;;;12.20;;
35366;SDS011;21465;52.278;20.962;2023-06-22T00:48:34;12.38;;;11.57;;
35366;SDS011;21465;52.278;20.962;2023-06-22T00:51:01;12.43;;;11.63;;
35366;SDS011;21465;52.278;20.962;2023-06-22T00:53:28;12.55;;;11.73;;
35366;SDS011;21465;52.278;20.962;2023-06-22T00:55:54;11.68;;;10.98;;
35366;SDS011;21465;52.278;20.962;2023-06-22T00:58:20;13.07;;;12.27;;
35366;SDS011;21465;52.278;20.962;2023-06-22T01:00:51;11.77;;;11.05;;
35366;SDS011;21465;52.278;20.962;2023-06-22T01:03:17;12.68;;;11.90;;
35366;SDS011;21465;52.278;20.962;2023-06-22T01:05:44;12.75;;;11.95;;
35366;SDS011;21465;52.278;20.962;2023-06-22T01:08:15;11.93;;;11.23;;
35366;SDS011;21465;52.278;20.962;2023-06-22T01:10:44;12.45;;;11.65;;
35366;SDS011;21465;52.278;20.962;2023-06-22T01:16:17;11.68;;;10.98;;
35366;SDS011;21465;52.278;20.962;2023-06-22T01:18:46;13.50;;;12.70;;
35366;SDS011;21465;52.278;20.962;2023-06-22T01:21:14;13.00;;;12.20;;
35366;SDS011;21465;52.278;20.962;2023-06-22T01:29:19;12.75;;;11.82;;
35366;SDS011;21465;52.278;20.962;2023-06-22T01:31:46;13.38;;;12.48;;
35366;SDS011;21465;52.278;20.962;2023-06-22T01:34:12;12.95;;;12.15;;
35366;SDS011;21465;52.278;20.962;2023-06-22T01:36:39;12.48;;;11.57;;
35366;SDS011;21465;52.278;20.962;2023-06-22T01:39:06;13.82;;;12.93;;
35366;SDS011;21465;52.278;20.962;2023-06-22T01:41:34;12.35;;;11.52;;
35366;SDS011;21465;52.278;20.962;2023-06-22T01:44:02;12.73;;;11.93;;
35366;SDS011;21465;52.278;20.962;2023-06-22T01:46:33;13.35;;;12.52;;
35366;SDS011;21465;52.278;20.962;2023-06-22T01:49:01;12.63;;;11.88;;
35366;SDS011;21465;52.278;20.962;2023-06-22T01:51:27;13.45;;;12.65;;
35366;SDS011;21465;52.278;20.962;2023-06-22T01:53:53;13.20;;;12.40;;
35366;SDS011;21465;52.278;20.962;2023-06-22T01:56:19;13.25;;;12.40;;
35366;SDS011;21465;52.278;20.962;2023-06-22T01:58:48;14.23;;;13.32;;
35366;SDS011;21465;52.278;20.962;2023-06-22T02:01:17;14.23;;;13.30;;
35366;SDS011;21465;52.278;20.962;2023-06-22T02:03:52;13.13;;;12.32;;
35366;SDS011;21465;52.278;20.962;2023-06-22T02:06:25;13.73;;;12.82;;
35366;SDS011;21465;52.278;20.962;2023-06-22T02:08:57;15.02;;;14.13;;
35366;SDS011;21465;52.278;20.962;2023-06-22T02:11:24;15.43;;;14.48;;
35366;SDS011;21465;52.278;20.962;2023-06-22T02:13:52;16.92;;;15.82;;
35366;SDS011;21465;52.278;20.962;2023-06-22T02:16:18;15.73;;;14.73;;
35366;SDS011;21465;52.278;20.962;2023-06-22T02:18:48;14.98;;;14.07;;
35366;SDS011;21465;52.278;20.962;2023-06-22T02:21:18;15.50;;;14.50;;
35366;SDS011;21465;52.278;20.962;2023-06-22T02:23:44;14.77;;;13.73;;
35366;SDS011;21465;52.278;20.962;2023-06-22T02:26:10;18.00;;;16.70;;
35366;SDS011;21465;52.278;20.962;2023-06-22T02:28:35;17.25;;;16.15;;
35366;SDS011;21465;52.278;20.962;2023-06-22T02:31:01;17.58;;;16.45;;
35366;SDS011;21465;52.278;20.962;2023-06-22T02:33:27;19.50;;;18.30;;
35366;SDS011;21465;52.278;20.962;2023-06-22T02:35:52;15.95;;;14.95;;
35366;SDS011;21465;52.278;20.962;2023-06-22T02:38:18;17.73;;;16.63;;
35366;SDS011;21465;52.278;20.962;2023-06-22T02:40:45;18.95;;;17.75;;
35366;SDS011;21465;52.278;20.962;2023-06-22T02:43:12;21.25;;;19.83;;
35366;SDS011;21465;52.278;20.962;2023-06-22T02:45:38;22.10;;;20.65;;
35366;SDS011;21465;52.278;20.962;2023-06-22T02:48:04;22.80;;;21.20;;
35366;SDS011;21465;52.278;20.962;2023-06-22T02:50:31;21.63;;;20.17;;
35366;SDS011;21465;52.278;20.962;2023-06-22T02:52:57;24.48;;;22.85;;
35366;SDS011;21465;52.278;20.962;2023-06-22T02:55:23;25.25;;;23.23;;
35366;SDS011;21465;52.278;20.962;2023-06-22T02:57:49;23.67;;;21.98;;
35366;SDS011;21465;52.278;20.962;2023-06-22T03:00:17;25.02;;;23.27;;
35366;SDS011;21465;52.278;20.962;2023-06-22T03:02:44;24.17;;;22.55;;
35366;SDS011;21465;52.278;20.962;2023-06-22T03:05:11;23.85;;;22.25;;
35366;SDS011;21465;52.278;20.962;2023-06-22T03:07:39;22.38;;;20.85;;
35366;SDS011;21465;52.278;20.962;2023-06-22T03:10:06;25.15;;;23.23;;
35366;SDS011;21465;52.278;20.962;2023-06-22T03:12:36;23.00;;;21.42;;
35366;SDS011;21465;52.278;20.962;2023-06-22T03:15:03;22.25;;;20.75;;
35366;SDS011;21465;52.278;20.962;2023-06-22T03:17:31;22.42;;;20.83;;
35366;SDS011;21465;52.278;20.962;2023-06-22T03:19:56;22.30;;;20.70;;
35366;SDS011;21465;52.278;20.962;2023-06-22T03:22:22;21.60;;;20.20;;
35366;SDS011;21465;52.278;20.962;2023-06-22T03:24:48;22.23;;;20.67;;
35366;SDS011;21465;52.278;20.962;2023-06-22T03:27:13;22.13;;;20.52;;
35366;SDS011;21465;52.278;20.962;2023-06-22T03:29:39;21.98;;;20.48;;
35366;SDS011;21465;52.278;20.962;2023-06-22T03:32:05;20.20;;;18.77;;
35366;SDS011;21465;52.278;20.962;2023-06-22T03:34:32;22.58;;;20.98;;
35366;SDS011;21465;52.278;20.962;2023-06-22T03:37:04;20.58;;;19.17;;
35366;SDS011;21465;52.278;20.962;2023-06-22T03:39:29;21.13;;;19.63;;
35366;SDS011;21465;52.278;20.962;2023-06-22T03:41:55;19.23;;;17.83;;
35366;SDS011;21465;52.278;20.962;2023-06-22T03:44:21;19.58;;;18.27;;
35366;SDS011;21465;52.278;20.962;2023-06-22T03:46:46;20.90;;;19.50;;
35366;SDS011;21465;52.278;20.962;2023-06-22T03:49:12;17.75;;;16.65;;
35366;SDS011;21465;52.278;20.962;2023-06-22T03:51:38;19.42;;;18.13;;
35366;SDS011;21465;52.278;20.962;2023-06-22T03:54:04;19.67;;;18.25;;
35366;SDS011;21465;52.278;20.962;2023-06-22T03:56:30;18.55;;;17.30;;
35366;SDS011;21465;52.278;20.962;2023-06-22T03:58:55;17.88;;;16.58;;
35366;SDS011;21465;52.278;20.962;2023-06-22T04:01:21;17.25;;;16.15;;
35366;SDS011;21465;52.278;20.962;2023-06-22T04:03:47;19.20;;;17.92;;
35366;SDS011;21465;52.278;20.962;2023-06-22T04:06:15;17.20;;;16.10;;
35366;SDS011;21465;52.278;20.962;2023-06-22T04:08:40;18.45;;;17.10;;
35366;SDS011;21465;52.278;20.962;2023-06-22T04:11:06;18.80;;;17.60;;
35366;SDS011;21465;52.278;20.962;2023-06-22T04:13:32;18.02;;;16.73;;
35366;SDS011;21465;52.278;20.962;2023-06-22T04:15:57;16.55;;;15.55;;
35366;SDS011;21465;52.278;20.962;2023-06-22T04:18:23;16.77;;;15.27;;
35366;SDS011;21465;52.278;20.962;2023-06-22T04:20:49;16.88;;;15.77;;
35366;SDS011;21465;52.278;20.962;2023-06-22T04:23:14;15.77;;;14.60;;
35366;SDS011;21465;52.278;20.962;2023-06-22T04:25:40;15.90;;;14.77;;
35366;SDS011;21465;52.278;20.962;2023-06-22T04:28:06;15.65;;;14.65;;
35366;SDS011;21465;52.278;20.962;2023-06-22T04:30:38;14.23;;;13.23;;
35366;SDS011;21465;52.278;20.962;2023-06-22T04:33:12;14.85;;;13.85;;
35366;SDS011;21465;52.278;20.962;2023-06-22T04:35:39;15.27;;;14.00;;
35366;SDS011;21465;52.278;20.962;2023-06-22T04:38:08;13.40;;;12.50;;
35366;SDS011;21465;52.278;20.962;2023-06-22T04:40:34;15.27;;;14.23;;
35366;SDS011;21465;52.278;20.962;2023-06-22T04:43:00;16.63;;;15.43;;
35366;SDS011;21465;52.278;20.962;2023-06-22T04:45:30;15.18;;;14.18;;
35366;SDS011;21465;52.278;20.962;2023-06-22T04:47:56;15.05;;;14.10;;
35366;SDS011;21465;52.278;20.962;2023-06-22T04:50:22;14.13;;;13.23;;
35366;SDS011;21465;52.278;20.962;2023-06-22T04:52:48;13.75;;;12.85;;
35366;SDS011;21465;52.278;20.962;2023-06-22T04:55:15;14.80;;;13.82;;
35366;SDS011;21465;52.278;20.962;2023-06-22T05:00:15;14.60;;;13.50;;
35366;SDS011;21465;52.278;20.962;2023-06-22T05:02:43;14.35;;;13.30;;
35366;SDS011;21465;52.278;20.962;2023-06-22T05:05:10;14.10;;;13.10;;
35366;SDS011;21465;52.278;20.962;2023-06-22T05:07:39;15.65;;;14.65;;
35366;SDS011;21465;52.278;20.962;2023-06-22T05:12:34;13.00;;;12.02;;
35366;SDS011;21465;52.278;20.962;2023-06-22T05:15:00;14.38;;;13.27;;
35366;SDS011;21465;52.278;20.962;2023-06-22T05:17:26;13.48;;;12.40;;
35366;SDS011;21465;52.278;20.962;2023-06-22T05:19:52;12.85;;;12.05;;
35366;SDS011;21465;52.278;20.962;2023-06-22T05:22:18;14.00;;;13.00;;
35366;SDS011;21465;52.278;20.962;2023-06-22T05:24:44;13.32;;;12.43;;
35366;SDS011;21465;52.278;20.962;2023-06-22T05:27:10;13.18;;;12.27;;
35366;SDS011;21465;52.278;20.962;2023-06-22T05:29:36;13.10;;;12.25;;
35366;SDS011;21465;52.278;20.962;2023-06-22T05:32:02;12.95;;;11.95;;
35366;SDS011;21465;52.278;20.962;2023-06-22T05:34:29;12.27;;;11.48;;
35366;SDS011;21465;52.278;20.962;2023-06-22T05:36:54;12.65;;;11.75;;
35366;SDS011;21465;52.278;20.962;2023-06-22T05:39:20;13.20;;;12.30;;
35366;SDS011;21465;52.278;20.962;2023-06-22T05:41:46;12.13;;;11.30;;
35366;SDS011;21465;52.278;20.962;2023-06-22T05:44:12;13.90;;;12.85;;
35366;SDS011;21465;52.278;20.962;2023-06-22T05:46:41;13.65;;;12.57;;
35366;SDS011;21465;52.278;20.962;2023-06-22T05:49:12;12.30;;;11.43;;
35366;SDS011;21465;52.278;20.962;2023-06-22T05:51:38;11.57;;;10.77;;
35366;SDS011;21465;52.278;20.962;2023-06-22T05:54:04;11.88;;;11.05;;
35366;SDS011;21465;52.278;20.962;2023-06-22T05:56:30;10.38;;;9.68;;
35366;SDS011;21465;52.278;20.962;2023-06-22T05:58:56;10.48;;;9.68;;
35366;SDS011;21465;52.278;20.962;2023-06-22T06:01:22;10.98;;;10.27;;
35366;SDS011;21465;52.278;20.962;2023-06-22T06:03:48;11.20;;;10.30;;
35366;SDS011;21465;52.278;20.962;2023-06-22T06:06:15;10.70;;;9.90;;
35366;SDS011;21465;52.278;20.962;2023-06-22T06:08:41;10.38;;;9.57;;
35366;SDS011;21465;52.278;20.962;2023-06-22T06:11:06;10.32;;;9.52;;
35366;SDS011;21465;52.278;20.962;2023-06-22T06:13:32;10.40;;;9.65;;
35366;SDS011;21465;52.278;20.962;2023-06-22T06:15:58;9.63;;;8.90;;
35366;SDS011;21465;52.278;20.962;2023-06-22T06:18:24;9.82;;;9.13;;
35366;SDS011;21465;52.278;20.962;2023-06-22T06:20:50;10.15;;;9.40;;
35366;SDS011;21465;52.278;20.962;2023-06-22T06:23:16;9.88;;;9.07;;
35366;SDS011;21465;52.278;20.962;2023-06-22T06:25:42;9.55;;;8.85;;
35366;SDS011;21465;52.278;20.962;2023-06-22T06:28:08;8.88;;;8.27;;
35366;SDS011;21465;52.278;20.962;2023-06-22T06:30:34;8.93;;;8.32;;
35366;SDS011;21465;52.278;20.962;2023-06-22T06:33:02;8.27;;;7.57;;
35366;SDS011;21465;52.278;20.962;2023-06-22T06:35:29;7.82;;;7.20;;
35366;SDS011;21465;52.278;20.962;2023-06-22T06:37:55;7.72;;;7.15;;
35366;SDS011;21465;52.278;20.962;2023-06-22T06:40:22;7.95;;;6.85;;
35366;SDS011;21465;52.278;20.962;2023-06-22T06:42:48;7.05;;;6.55;;
35366;SDS011;21465;52.278;20.962;2023-06-22T06:45:21;6.68;;;6.28;;
35366;SDS011;21465;52.278;20.962;2023-06-22T06:47:51;6.95;;;6.45;;
35366;SDS011;21465;52.278;20.962;2023-06-22T06:50:17;7.55;;;7.05;;
35366;SDS011;21465;52.278;20.962;2023-06-22T06:52:46;7.05;;;6.63;;
35366;SDS011;21465;52.278;20.962;2023-06-22T06:55:11;7.18;;;6.78;;
35366;SDS011;21465;52.278;20.962;2023-06-22T06:57:38;7.10;;;6.60;;
35366;SDS011;21465;52.278;20.962;2023-06-22T07:00:05;6.53;;;6.13;;
35366;SDS011;21465;52.278;20.962;2023-06-22T07:02:35;6.15;;;5.75;;
35366;SDS011;21465;52.278;20.962;2023-06-22T07:05:01;6.88;;;6.28;;
35366;SDS011;21465;52.278;20.962;2023-06-22T07:07:29;6.75;;;6.25;;
35366;SDS011;21465;52.278;20.962;2023-06-22T07:09:55;6.18;;;5.68;;
35366;SDS011;21465;52.278;20.962;2023-06-22T07:12:24;6.07;;;5.57;;
35366;SDS011;21465;52.278;20.962;2023-06-22T07:14:51;5.40;;;4.88;;
35366;SDS011;21465;52.278;20.962;2023-06-22T07:17:17;5.53;;;5.13;;
35366;SDS011;21465;52.278;20.962;2023-06-22T07:19:43;5.20;;;4.82;;
35366;SDS011;21465;52.278;20.962;2023-06-22T07:22:09;4.85;;;4.40;;
35366;SDS011;21465;52.278;20.962;2023-06-22T07:24:36;4.85;;;4.30;;
35366;SDS011;21465;52.278;20.962;2023-06-22T07:27:05;4.00;;;3.70;;
35366;SDS011;21465;52.278;20.962;2023-06-22T07:29:32;4.78;;;4.38;;
35366;SDS011;21465;52.278;20.962;2023-06-22T07:31:58;4.18;;;3.80;;
35366;SDS011;21465;52.278;20.962;2023-06-22T07:34:26;4.22;;;3.92;;
35366;SDS011;21465;52.278;20.962;2023-06-22T07:36:52;4.05;;;3.58;;
35366;SDS011;21465;52.278;20.962;2023-06-22T07:39:17;3.65;;;3.35;;
35366;SDS011;21465;52.278;20.962;2023-06-22T07:41:43;3.85;;;3.55;;
35366;SDS011;21465;52.278;20.962;2023-06-22T07:44:09;3.90;;;3.45;;
35366;SDS011;21465;52.278;20.962;2023-06-22T07:46:35;3.50;;;3.20;;
35366;SDS011;21465;52.278;20.962;2023-06-22T07:49:00;2.90;;;2.70;;
35366;SDS011;21465;52.278;20.962;2023-06-22T07:51:26;3.22;;;2.95;;
35366;SDS011;21465;52.278;20.962;2023-06-22T07:53:52;3.10;;;2.90;;
35366;SDS011;21465;52.278;20.962;2023-06-22T07:56:26;3.05;;;2.50;;
35366;SDS011;21465;52.278;20.962;2023-06-22T07:58:51;3.15;;;2.85;;
35366;SDS011;21465;52.278;20.962;2023-06-22T08:01:18;2.53;;;2.33;;
35366;SDS011;21465;52.278;20.962;2023-06-22T08:03:47;3.17;;;2.53;;
35366;SDS011;21465;52.278;20.962;2023-06-22T08:08:40;2.50;;;2.30;;
35366;SDS011;21465;52.278;20.962;2023-06-22T08:11:08;2.33;;;2.13;;
35366;SDS011;21465;52.278;20.962;2023-06-22T08:13:34;3.78;;;2.30;;
35366;SDS011;21465;52.278;20.962;2023-06-22T08:16:00;2.05;;;1.88;;
35366;SDS011;21465;52.278;20.962;2023-06-22T08:18:26;2.20;;;2.10;;
35366;SDS011;21465;52.278;20.962;2023-06-22T08:20:52;4.03;;;2.30;;
35366;SDS011;21465;52.278;20.962;2023-06-22T08:23:17;2.08;;;1.98;;
35366;SDS011;21465;52.278;20.962;2023-06-22T08:25:45;4.22;;;2.45;;
35366;SDS011;21465;52.278;20.962;2023-06-22T08:28:13;2.55;;;2.35;;
35366;SDS011;21465;52.278;20.962;2023-06-22T08:30:39;2.22;;;1.95;;
35366;SDS011;21465;52.278;20.962;2023-06-22T08:33:07;2.22;;;2.00;;
35366;SDS011;21465;52.278;20.962;2023-06-22T08:35:33;2.67;;;1.67;;
35366;SDS011;21465;52.278;20.962;2023-06-22T08:37:58;2.90;;;1.98;;
35366;SDS011;21465;52.278;20.962;2023-06-22T08:40:25;2.15;;;1.95;;
35366;SDS011;21465;52.278;20.962;2023-06-22T08:42:51;2.50;;;1.92;;
35366;SDS011;21465;52.278;20.962;2023-06-22T08:45:16;1.92;;;1.83;;
35366;SDS011;21465;52.278;20.962;2023-06-22T08:47:42;2.78;;;1.58;;
35366;SDS011;21465;52.278;20.962;2023-06-22T08:50:08;1.73;;;1.60;;
35366;SDS011;21465;52.278;20.962;2023-06-22T08:52:38;1.73;;;1.50;;
35366;SDS011;21465;52.278;20.962;2023-06-22T08:55:09;2.17;;;1.30;;
35366;SDS011;21465;52.278;20.962;2023-06-22T08:57:35;1.90;;;1.77;;
35366;SDS011;21465;52.278;20.962;2023-06-22T09:00:07;1.40;;;1.30;;
35366;SDS011;21465;52.278;20.962;2023-06-22T09:02:44;1.90;;;1.45;;
35366;SDS011;21465;52.278;20.962;2023-06-22T09:05:10;1.77;;;1.30;;
35366;SDS011;21465;52.278;20.962;2023-06-22T09:07:36;4.05;;;1.35;;
35366;SDS011;21465;52.278;20.962;2023-06-22T09:10:02;1.58;;;1.42;;
35366;SDS011;21465;52.278;20.962;2023-06-22T09:12:29;2.13;;;1.30;;
35366;SDS011;21465;52.278;20.962;2023-06-22T09:14:56;1.88;;;1.30;;
35366;SDS011;21465;52.278;20.962;2023-06-22T09:17:22;1.80;;;1.30;;
35366;SDS011;21465;52.278;20.962;2023-06-22T09:19:48;1.33;;;1.20;;
35366;SDS011;21465;52.278;20.962;2023-06-22T09:22:14;1.73;;;1.52;;
35366;SDS011;21465;52.278;20.962;2023-06-22T09:24:40;1.38;;;1.23;;
35366;SDS011;21465;52.278;20.962;2023-06-22T09:27:05;2.58;;;1.40;;
35366;SDS011;21465;52.278;20.962;2023-06-22T09:29:31;1.58;;;1.48;;
35366;SDS011;21465;52.278;20.962;2023-06-22T09:32:00;1.73;;;1.63;;
35366;SDS011;21465;52.278;20.962;2023-06-22T09:34:26;2.70;;;1.70;;
35366;SDS011;21465;52.278;20.962;2023-06-22T09:36:52;1.63;;;1.33;;
35366;SDS011;21465;52.278;20.962;2023-06-22T09:39:18;2.33;;;1.65;;
35366;SDS011;21465;52.278;20.962;2023-06-22T09:41:43;1.42;;;1.20;;
35366;SDS011;21465;52.278;20.962;2023-06-22T09:44:09;1.63;;;1.50;;
35366;SDS011;21465;52.278;20.962;2023-06-22T09:46:35;1.67;;;1.58;;
35366;SDS011;21465;52.278;20.962;2023-06-22T09:49:01;1.80;;;1.58;;
35366;SDS011;21465;52.278;20.962;2023-06-22T09:51:27;1.40;;;1.30;;
35366;SDS011;21465;52.278;20.962;2023-06-22T09:53:52;3.45;;;1.73;;
35366;SDS011;21465;52.278;20.962;2023-06-22T09:56:21;3.33;;;1.50;;
35366;SDS011;21465;52.278;20.962;2023-06-22T09:58:48;6.32;;;2.08;;
35366;SDS011;21465;52.278;20.962;2023-06-22T10:01:15;4.15;;;1.80;;
35366;SDS011;21465;52.278;20.962;2023-06-22T10:03:41;3.10;;;1.80;;
35366;SDS011;21465;52.278;20.962;2023-06-22T10:06:07;2.20;;;1.75;;
35366;SDS011;21465;52.278;20.962;2023-06-22T10:08:37;2.47;;;1.40;;
35366;SDS011;21465;52.278;20.962;2023-06-22T10:11:03;3.25;;;1.83;;
35366;SDS011;21465;52.278;20.962;2023-06-22T10:13:29;2.28;;;1.63;;
35366;SDS011;21465;52.278;20.962;2023-06-22T10:15:55;2.92;;;1.58;;
35366;SDS011;21465;52.278;20.962;2023-06-22T10:18:20;2.00;;;1.80;;
35366;SDS011;21465;52.278;20.962;2023-06-22T10:20:50;4.10;;;1.70;;
35366;SDS011;21465;52.278;20.962;2023-06-22T10:23:19;2.67;;;1.85;;
35366;SDS011;21465;52.278;20.962;2023-06-22T10:25:45;2.28;;;2.05;;
35366;SDS011;21465;52.278;20.962;2023-06-22T10:28:11;2.90;;;1.98;;
35366;SDS011;21465;52.278;20.962;2023-06-22T10:30:38;2.40;;;1.92;;
35366;SDS011;21465;52.278;20.962;2023-06-22T10:33:07;1.90;;;1.80;;
35366;SDS011;21465;52.278;20.962;2023-06-22T10:35:33;2.03;;;1.80;;
35366;SDS011;21465;52.278;20.962;2023-06-22T10:37:59;3.05;;;2.10;;
35366;SDS011;21465;52.278;20.962;2023-06-22T10:40:25;1.88;;;1.65;;
35366;SDS011;21465;52.278;20.962;2023-06-22T10:42:51;2.00;;;1.80;;
35366;SDS011;21465;52.278;20.962;2023-06-22T10:45:16;2.53;;;2.15;;
35366;SDS011;21465;52.278;20.962;2023-06-22T10:47:42;2.58;;;1.95;;
35366;SDS011;21465;52.278;20.962;2023-06-22T10:50:08;1.95;;;1.85;;
35366;SDS011;21465;52.278;20.962;2023-06-22T10:52:35;3.88;;;2.03;;
35366;SDS011;21465;52.278;20.962;2023-06-22T10:55:01;1.98;;;1.70;;
35366;SDS011;21465;52.278;20.962;2023-06-22T10:57:27;2.03;;;1.92;;
35366;SDS011;21465;52.278;20.962;2023-06-22T10:59:52;3.80;;;2.53;;
35366;SDS011;21465;52.278;20.962;2023-06-22T11:02:18;2.67;;;2.22;;
35366;SDS011;21465;52.278;20.962;2023-06-22T11:04:43;2.72;;;2.10;;
35366;SDS011;21465;52.278;20.962;2023-06-22T11:07:09;4.07;;;1.77;;
35366;SDS011;21465;52.278;20.962;2023-06-22T11:09:35;4.13;;;2.22;;
35366;SDS011;21465;52.278;20.962;2023-06-22T11:12:01;2.00;;;1.85;;
35366;SDS011;21465;52.278;20.962;2023-06-22T11:14:27;2.78;;;2.15;;
35366;SDS011;21465;52.278;20.962;2023-06-22T11:16:53;6.22;;;2.15;;
35366;SDS011;21465;52.278;20.962;2023-06-22T11:19:18;2.20;;;2.00;;
35366;SDS011;21465;52.278;20.962;2023-06-22T11:21:44;2.70;;;2.17;;
35366;SDS011;21465;52.278;20.962;2023-06-22T11:24:10;2.20;;;2.00;;
35366;SDS011;21465;52.278;20.962;2023-06-22T11:26:36;4.50;;;1.83;;
35366;SDS011;21465;52.278;20.962;2023-06-22T11:29:02;2.13;;;1.92;;
35366;SDS011;21465;52.278;20.962;2023-06-22T11:31:31;5.40;;;2.40;;
35366;SDS011;21465;52.278;20.962;2023-06-22T11:33:57;2.78;;;2.05;;
35366;SDS011;21465;52.278;20.962;2023-06-22T11:36:23;3.38;;;1.63;;
35366;SDS011;21465;52.278;20.962;2023-06-22T11:38:49;2.53;;;2.33;;
35366;SDS011;21465;52.278;20.962;2023-06-22T11:41:14;2.53;;;2.00;;
35366;SDS011;21465;52.278;20.962;2023-06-22T11:43:54;1.77;;;1.63;;
35366;SDS011;21465;52.278;20.962;2023-06-22T11:46:21;2.13;;;1.70;;
35366;SDS011;21465;52.278;20.962;2023-06-22T11:48:46;2.70;;;2.17;;
35366;SDS011;21465;52.278;20.962;2023-06-22T11:51:12;2.85;;;2.40;;
35366;SDS011;21465;52.278;20.962;2023-06-22T11:53:38;3.05;;;1.92;;
35366;SDS011;21465;52.278;20.962;2023-06-22T11:56:04;2.10;;;1.95;;
35366;SDS011;21465;52.278;20.962;2023-06-22T11:58:29;2.13;;;1.92;;
35366;SDS011;21465;52.278;20.962;2023-06-22T12:00:55;2.33;;;2.13;;
35366;SDS011;21465;52.278;20.962;2023-06-22T12:03:21;3.58;;;1.95;;
35366;SDS011;21465;52.278;20.962;2023-06-22T12:05:47;2.55;;;2.33;;
35366;SDS011;21465;52.278;20.962;2023-06-22T12:08:13;3.75;;;2.13;;
35366;SDS011;21465;52.278;20.962;2023-06-22T12:10:39;2.47;;;1.85;;
35366;SDS011;21465;52.278;20.962;2023-06-22T12:13:04;2.65;;;1.95;;
35366;SDS011;21465;52.278;20.962;2023-06-22T12:15:30;1.98;;;1.83;;
35366;SDS011;21465;52.278;20.962;2023-06-22T12:17:56;2.58;;;2.00;;
35366;SDS011;21465;52.278;20.962;2023-06-22T12:20:22;2.03;;;1.90;;
35366;SDS011;21465;52.278;20.962;2023-06-22T12:22:50;2.80;;;1.88;;
35366;SDS011;21465;52.278;20.962;2023-06-22T12:25:18;2.50;;;2.17;;
35366;SDS011;21465;52.278;20.962;2023-06-22T12:27:43;2.20;;;2.00;;
35366;SDS011;21465;52.278;20.962;2023-06-22T12:30:09;3.30;;;2.30;;
35366;SDS011;21465;52.278;20.962;2023-06-22T12:32:36;2.10;;;1.98;;
35366;SDS011;21465;52.278;20.962;2023-06-22T12:35:02;2.20;;;2.10;;
35366;SDS011;21465;52.278;20.962;2023-06-22T12:37:28;3.60;;;2.17;;
35366;SDS011;21465;52.278;20.962;2023-06-22T12:39:54;1.95;;;1.80;;
35366;SDS011;21465;52.278;20.962;2023-06-22T12:42:20;2.05;;;1.95;;
35366;SDS011;21465;52.278;20.962;2023-06-22T12:44:46;1.83;;;1.70;;
35366;SDS011;21465;52.278;20.962;2023-06-22T12:47:14;2.10;;;1.90;;
35366;SDS011;21465;52.278;20.962;2023-06-22T12:49:40;1.75;;;1.63;;
35366;SDS011;21465;52.278;20.962;2023-06-22T12:52:08;2.28;;;2.17;;
35366;SDS011;21465;52.278;20.962;2023-06-22T12:54:36;2.67;;;2.45;;
35366;SDS011;21465;52.278;20.962;2023-06-22T12:57:01;3.58;;;2.08;;
35366;SDS011;21465;52.278;20.962;2023-06-22T12:59:27;3.42;;;2.20;;
35366;SDS011;21465;52.278;20.962;2023-06-22T13:01:53;2.00;;;1.90;;
35366;SDS011;21465;52.278;20.962;2023-06-22T13:04:20;2.33;;;2.13;;
35366;SDS011;21465;52.278;20.962;2023-06-22T13:06:46;2.55;;;2.13;;
35366;SDS011;21465;52.278;20.962;2023-06-22T13:09:17;2.03;;;1.92;;
35366;SDS011;21465;52.278;20.962;2023-06-22T13:11:43;2.00;;;1.90;;
35366;SDS011;21465;52.278;20.962;2023-06-22T13:14:09;2.40;;;2.22;;
35366;SDS011;21465;52.278;20.962;2023-06-22T13:16:35;2.10;;;2.00;;
35366;SDS011;21465;52.278;20.962;2023-06-22T13:19:02;3.15;;;2.38;;
35366;SDS011;21465;52.278;20.962;2023-06-22T13:21:28;2.03;;;1.80;;
35366;SDS011;21465;52.278;20.962;2023-06-22T13:23:55;2.33;;;1.70;;
35366;SDS011;21465;52.278;20.962;2023-06-22T13:26:21;3.83;;;2.00;;
35366;SDS011;21465;52.278;20.962;2023-06-22T13:28:47;2.10;;;1.70;;
35366;SDS011;21465;52.278;20.962;2023-06-22T13:31:13;1.92;;;1.83;;
35366;SDS011;21465;52.278;20.962;2023-06-22T13:33:39;2.35;;;1.95;;
35366;SDS011;21465;52.278;20.962;2023-06-22T13:36:06;2.20;;;2.10;;
35366;SDS011;21465;52.278;20.962;2023-06-22T13:38:34;2.72;;;2.53;;
35366;SDS011;21465;52.278;20.962;2023-06-22T13:41:03;2.60;;;2.40;;
35366;SDS011;21465;52.278;20.962;2023-06-22T13:43:32;5.13;;;2.33;;
35366;SDS011;21465;52.278;20.962;2023-06-22T13:45:58;2.90;;;2.50;;
35366;SDS011;21465;52.278;20.962;2023-06-22T13:48:24;4.72;;;2.72;;
35366;SDS011;21465;52.278;20.962;2023-06-22T13:50:54;2.42;;;2.22;;
35366;SDS011;21465;52.278;20.962;2023-06-22T13:53:20;2.38;;;2.20;;
35366;SDS011;21465;52.278;20.962;2023-06-22T13:55:45;2.70;;;2.15;;
35366;SDS011;21465;52.278;20.962;2023-06-22T13:58:13;2.33;;;2.13;;
35366;SDS011;21465;52.278;20.962;2023-06-22T14:00:38;2.70;;;2.50;;
35366;SDS011;21465;52.278;20.962;2023-06-22T14:03:04;2.50;;;2.30;;
35366;SDS011;21465;52.278;20.962;2023-06-22T14:05:30;2.40;;;2.30;;
35366;SDS011;21465;52.278;20.962;2023-06-22T14:07:56;3.47;;;3.28;;
35366;SDS011;21465;52.278;20.962;2023-06-22T14:10:24;2.80;;;2.60;;
35366;SDS011;21465;52.278;20.962;2023-06-22T14:12:50;2.63;;;2.42;;
35366;SDS011;21465;52.278;20.962;2023-06-22T14:15:15;2.80;;;2.10;;
35366;SDS011;21465;52.278;20.962;2023-06-22T14:17:41;2.40;;;2.20;;
35366;SDS011;21465;52.278;20.962;2023-06-22T14:20:07;2.72;;;2.53;;
35366;SDS011;21465;52.278;20.962;2023-06-22T14:22:34;2.97;;;2.72;;
35366;SDS011;21465;52.278;20.962;2023-06-22T14:25:04;2.63;;;2.45;;
35366;SDS011;21465;52.278;20.962;2023-06-22T14:27:30;2.72;;;2.47;;
35366;SDS011;21465;52.278;20.962;2023-06-22T14:29:56;3.13;;;2.53;;
35366;SDS011;21465;52.278;20.962;2023-06-22T14:32:24;2.50;;;2.30;;
35366;SDS011;21465;52.278;20.962;2023-06-22T14:34:50;3.03;;;2.15;;
35366;SDS011;21465;52.278;20.962;2023-06-22T14:37:16;2.40;;;2.20;;